Time;durP1;ratioP1;P1;durP2;ratioP2;P2;SDS_P1;SDS_P2;PMS_P1;PMS_P2;Temp;Humidity;BMP_temperature;BMP_pressure;BME280_temperature;BME280_humidity;BME280_pressure;Samples;Min_cycle;Max_cycle;Signal;HPM_P1;HPM_P2
2021/12/22 06:24:24;;;;;;;15.57;7.33;;;;;;;-9.37;100.00;99975.97;5008859;27;20421;-80
2021/12/22 06:26:51;;;;;;;12.77;7.73;;;;;;;-9.24;100.00;99987.91;5007993;28;20054;-80
2021/12/22 06:29:20;;;;;;;14.73;7.13;;;;;;;-9.27;100.00;99980.09;5007882;28;20058;-81
2021/12/22 06:31:58;;;;;;;15.43;7.93;;;;;;;-9.21;100.00;99976.41;5012367;28;20049;-80
2021/12/22 06:34:27;;;;;;;21.70;6.23;;;;;;;-9.31;100.00;99960.84;4994764;28;20498;-81
2021/12/22 06:36:56;;;;;;;13.07;6.45;;;;;;;-9.17;100.00;99975.44;5019189;28;20091;-81
2021/12/22 06:39:25;;;;;;;13.98;7.43;;;;;;;-9.17;100.00;99967.53;5007785;28;20140;-81
2021/12/22 06:42:12;;;;;;;14.50;7.47;;;;;;;-9.07;100.00;99974.28;5013739;28;20045;-80
2021/12/22 06:44:39;;;;;;;16.90;7.83;;;;;;;-9.07;100.00;99966.38;5034462;28;20569;-80
2021/12/22 06:47:15;;;;;;;18.73;6.67;;;;;;;-9.05;100.00;99967.19;5009002;28;20379;-81
2021/12/22 06:49:42;;;;;;;13.53;6.67;;;;;;;-9.05;100.00;99963.72;5007099;28;20050;-81
2021/12/22 06:52:09;;;;;;;20.67;8.13;;;;;;;-9.15;100.00;99945.53;5007299;28;20120;-81
2021/12/22 06:54:40;;;;;;;19.17;8.90;;;;;;;-9.11;100.00;99957.72;5007809;28;20046;-81
2021/12/22 06:57:14;;;;;;;19.70;8.13;;;;;;;-9.24;100.00;99945.78;5023534;28;20050;-81
2021/12/22 06:59:41;;;;;;;16.67;8.00;;;;;;;-9.17;100.00;99954.38;5007193;28;20054;-81
2021/12/22 07:02:08;;;;;;;20.43;8.57;;;;;;;-9.20;100.00;99947.41;5006691;28;20125;-81
2021/12/22 07:04:38;;;;;;;15.57;6.57;;;;;;;-9.08;100.00;99956.75;5007267;28;20050;-81
2021/12/22 07:07:05;;;;;;;18.03;6.73;;;;;;;-9.10;100.00;99955.94;5007328;28;20050;-81
2021/12/22 07:09:37;;;;;;;13.83;6.80;;;;;;;-9.13;100.00;99956.03;5021595;28;20080;-81
2021/12/22 07:12:05;;;;;;;10.57;6.00;;;;;;;-9.03;100.00;99973.31;5014518;28;20099;-81
2021/12/22 07:14:32;;;;;;;17.67;7.27;;;;;;;-9.01;100.00;99989.94;5006740;28;20051;-81
2021/12/22 07:16:59;;;;;;;18.17;7.13;;;;;;;-9.14;100.00;99978.00;5007517;28;20493;-81
2021/12/22 07:19:28;;;;;;;11.97;6.73;;;;;;;-9.09;100.00;99987.50;5006698;28;20489;-81
2021/12/22 07:21:55;;;;;;;14.40;7.00;;;;;;;-8.97;100.00;99994.22;5009501;28;20075;-81
2021/12/22 07:24:22;;;;;;;12.33;6.77;;;;;;;-9.00;100.00;99998.69;4978542;28;20055;-81
2021/12/22 07:26:51;;;;;;;16.60;7.90;;;;;;;-9.03;100.00;100004.94;4984383;28;20046;-81
2021/12/22 07:29:18;;;;;;;17.53;7.57;;;;;;;-8.95;100.00;100018.75;5006521;28;20046;-81
2021/12/22 07:31:45;;;;;;;22.20;8.80;;;;;;;-8.98;100.00;100016.19;4999199;28;20039;-81
2021/12/22 07:34:16;;;;;;;18.87;8.43;;;;;;;-9.06;100.00;100002.38;4981236;28;20482;-81
2021/12/22 07:36:50;;;;;;;19.20;8.27;;;;;;;-8.90;100.00;100021.25;4987003;28;20099;-83
2021/12/22 07:39:17;;;;;;;20.00;8.27;;;;;;;-8.85;100.00;100023.75;4993669;28;20588;-82
2021/12/22 07:41:47;;;;;;;19.97;8.40;;;;;;;-8.93;100.00;100014.28;4986525;28;20043;-82
2021/12/22 07:44:17;;;;;;;;;;;;;;;-8.81;100.00;100028.06;4974296;28;20116;-82
2021/12/22 07:46:47;;;;;;;18.67;9.33;;;;;;;-8.89;100.00;100001.91;4974409;28;19961;-82
2021/12/22 07:49:17;;;;;;;19.80;9.37;;;;;;;-8.75;100.00;100020.84;4974261;28;20086;-82
2021/12/22 07:51:44;;;;;;;23.27;9.00;;;;;;;-8.82;100.00;100003.47;4975389;28;20508;-83
2021/12/22 07:54:11;;;;;;;23.53;9.97;;;;;;;-8.80;100.00;100004.28;4973760;28;20047;-80
2021/12/22 07:56:44;;;;;;;32.73;10.17;;;;;;;-8.73;100.00;100004.97;4974042;28;20134;-81
2021/12/22 07:59:11;;;;;;;24.37;9.40;;;;;;;-8.64;100.00;100006.50;4973876;28;20050;-86
2021/12/22 08:48:54;;;;;;;30.10;10.27;;;;;;;-8.09;100.00;99996.94;5083414;27;20854;-81
2021/12/22 08:51:21;;;;;;;22.47;10.60;;;;;;;-7.83;100.00;100006.69;5062562;28;20041;-83
2021/12/22 08:53:48;;;;;;;34.60;12.23;;;;;;;-7.79;100.00;99980.19;5049644;28;20049;-82
2021/12/22 08:56:16;;;;;;;29.63;12.57;;;;;;;-7.64;100.00;99977.06;5066995;28;20053;-82
2021/12/22 08:58:45;;;;;;;24.70;9.53;;;;;;;-7.41;100.00;99991.28;5057304;28;20050;-81
2021/12/22 09:01:14;;;;;;;21.98;11.70;;;;;;;-7.38;100.00;99977.97;5063162;28;20403;-82
2021/12/22 09:03:41;;;;;;;31.67;13.00;;;;;;;-7.30;100.00;99962.69;5070016;28;20388;-81
2021/12/22 09:06:09;;;;;;;30.20;11.50;;;;;;;-7.16;100.00;99972.81;5069109;28;20045;-82
2021/12/22 09:08:37;;;;;;;27.87;13.53;;;;;;;-7.11;100.00;99984.09;5069355;28;20098;-81
2021/12/22 09:11:10;;;;;;;30.97;12.63;;;;;;;-7.13;100.00;99965.63;5069109;28;20128;-81
2021/12/22 09:13:39;;;;;;;35.13;13.20;;;;;;;-6.87;100.00;100000.88;5070356;28;20124;-82
2021/12/22 09:16:07;;;;;;;27.40;12.40;;;;;;;-6.95;100.00;99964.13;5069875;28;20045;-82
2021/12/22 09:18:34;;;;;;;31.93;14.07;;;;;;;-6.76;100.00;99972.28;5069455;28;20079;-82
2021/12/22 09:21:05;;;;;;;32.87;13.73;;;;;;;-6.70;100.00;99962.38;5054810;28;20056;-82
2021/12/22 09:23:34;;;;;;;37.17;14.07;;;;;;;-6.59;100.00;99969.00;5065935;28;20052;-82
2021/12/22 09:26:05;;;;;;;39.83;14.60;;;;;;;-6.46;100.00;99985.28;5050966;28;20045;-82
2021/12/22 09:28:32;;;;;;;32.40;13.63;;;;;;;-6.33;100.00;99983.03;5049865;28;20304;-82
2021/12/22 09:31:05;;;;;;;44.10;14.37;;;;;;;-6.32;100.00;99957.41;5049907;28;20049;-82
2021/12/22 09:33:34;;;;;;;37.30;16.00;;;;;;;-6.03;100.00;99987.22;5069887;28;20045;-83
2021/12/22 09:36:04;;;;;;;46.95;17.05;;;;;;;-6.03;100.00;99990.72;5068989;28;20044;-82
2021/12/22 09:38:31;;;;;;;34.97;15.80;;;;;;;-6.04;100.00;99965.16;5049512;28;20084;-82
2021/12/22 09:41:05;;;;;;;36.20;16.97;;;;;;;-5.97;100.00;99973.75;5041651;28;20054;-82
2021/12/22 09:43:35;;;;;;;52.90;18.57;;;;;;;-5.91;100.00;99974.31;5029194;28;20049;-81
2021/12/22 09:46:05;;;;;;;;;;;;;;;-5.68;100.00;99981.34;5046441;28;20075;-82
2021/12/22 09:48:57;;;;;;;39.47;16.13;;;;;;;-5.61;100.00;99966.06;5068982;28;20352;-82
2021/12/22 09:54:19;;;;;;;33.70;14.33;;;;;;;-5.26;100.00;99958.44;5053231;28;20060;-82
2021/12/22 09:56:48;;;;;;;;;;;;;;;-5.06;100.00;99972.63;5042454;28;20072;-82
2021/12/22 09:59:19;;;;;;;31.60;13.33;;;;;;;-4.94;100.00;99971.22;5040280;28;19928;-81
2021/12/22 10:01:46;;;;;;;38.93;17.13;;;;;;;-4.86;100.00;99963.81;5048291;28;20053;-82
2021/12/22 10:04:16;;;;;;;29.50;13.83;;;;;;;-4.93;100.00;99949.94;5055882;28;20247;-82
2021/12/22 10:06:43;;;;;;;35.13;15.10;;;;;;;-4.77;100.00;99968.72;5055220;28;20053;-82
2021/12/22 10:09:15;;;;;;;39.90;16.33;;;;;;;-4.73;100.00;99945.53;5055413;28;20071;-82
2021/12/22 10:11:50;;;;;;;37.73;16.63;;;;;;;-4.65;100.00;99949.59;5049067;28;20052;-82
2021/12/22 10:14:19;;;;;;;31.80;14.20;;;;;;;-4.70;100.00;99940.94;5045384;28;20056;-82
2021/12/22 10:16:53;;;;;;;33.60;15.98;;;;;;;-4.62;100.00;99936.19;5040307;28;20073;-82
2021/12/22 10:19:24;;;;;;;32.17;15.33;;;;;;;-4.58;100.00;99925.41;5035426;28;20046;-81
2021/12/22 10:21:57;;;;;;;29.73;14.03;;;;;;;-4.49;100.00;99928.50;5034802;28;20488;-82
2021/12/22 10:24:38;;;;;;;35.60;15.20;;;;;;;-4.42;100.00;99905.19;5031571;28;20515;-82
2021/12/22 10:27:18;;;;;;;34.03;16.00;;;;;;;-4.23;100.00;99910.50;5043848;28;20045;-82
2021/12/22 10:29:49;;;;;;;31.13;13.80;;;;;;;-4.22;100.00;99898.09;5036366;28;20099;-82
2021/12/22 10:32:24;;;;;;;36.17;17.00;;;;;;;-4.02;100.00;99905.09;5034271;28;20081;-81
2021/12/22 10:35:05;;;;;;;30.90;15.73;;;;;;;-3.96;100.00;99910.09;5036258;28;20045;-81
2021/12/22 10:37:40;;;;;;;29.80;15.20;;;;;;;-3.87;100.00;99904.34;5025849;28;20128;-81
2021/12/22 10:40:23;;;;;;;35.13;15.03;;;;;;;-3.76;100.00;99910.00;5034609;28;20507;-81
2021/12/22 10:42:55;;;;;;;37.30;15.83;;;;;;;-3.63;100.00;99915.56;5039191;28;20400;-81
2021/12/22 10:45:24;;;;;;;39.23;17.50;;;;;;;-3.66;100.00;99901.56;5054998;28;20053;-81
2021/12/22 10:50:40;;;;;;;27.15;14.70;;;;;;;-3.65;100.00;99882.88;5034865;28;20060;-81
2021/12/22 10:53:12;;;;;;;35.33;15.53;;;;;;;-3.56;100.00;99884.22;5035177;28;20079;-82
2021/12/22 10:55:51;;;;;;;27.40;14.60;;;;;;;-3.33;100.00;99909.63;5034435;28;20412;-81
2021/12/22 10:58:26;;;;;;;32.10;15.27;;;;;;;-3.32;100.00;99882.09;5034885;28;20041;-81
2021/12/22 11:01:13;;;;;;;25.30;12.90;;;;;;;-3.21;100.00;99884.22;5035526;28;20489;-81
2021/12/22 11:03:46;;;;;;;30.33;14.73;;;;;;;-3.27;100.00;99876.56;5036260;28;20060;-81
2021/12/22 11:06:24;;;;;;;29.10;14.63;;;;;;;-3.16;100.00;99882.19;5035801;28;20063;-81
2021/12/22 11:08:59;;;;;;;30.63;14.97;;;;;;;-3.20;100.00;99864.66;5046497;28;20404;-81
2021/12/22 11:11:32;;;;;;;32.03;15.33;;;;;;;-3.00;100.00;99860.94;5034563;28;20224;-81
2021/12/22 11:14:14;;;;;;;37.17;15.77;;;;;;;-3.06;100.00;99846.16;5038521;28;20432;-81
2021/12/22 11:16:57;;;;;;;26.23;13.70;;;;;;;-3.03;100.00;99853.13;5027913;28;20132;-81
2021/12/22 11:19:31;;;;;;;32.83;13.97;;;;;;;-2.85;100.00;99869.91;5034308;28;20053;-81
2021/12/22 11:22:06;;;;;;;35.90;15.47;;;;;;;-2.95;100.00;99836.75;5034191;28;20057;-81
2021/12/22 11:24:37;;;;;;;31.03;14.37;;;;;;;-2.92;100.00;99842.78;5029266;28;20052;-81
2021/12/22 11:27:08;;;;;;;31.60;15.20;;;;;;;-2.81;100.00;99847.50;5033901;28;20046;-81
2021/12/22 11:29:38;;;;;;;32.23;14.50;;;;;;;-2.86;100.00;99826.47;5034194;28;20107;-81
2021/12/22 11:32:08;;;;;;;33.23;14.73;;;;;;;-2.70;100.00;99847.78;5034128;28;20045;-80
2021/12/22 11:34:37;;;;;;;30.90;15.30;;;;;;;-2.70;100.00;99836.28;5033687;28;20412;-81
2021/12/22 11:37:09;;;;;;;38.70;15.17;;;;;;;-2.52;100.00;99861.88;5033893;28;20061;-81
2021/12/22 11:39:46;;;;;;;32.07;15.87;;;;;;;-2.60;100.00;99828.66;5047474;28;20152;-81
2021/12/22 11:42:14;;;;;;;28.47;13.40;;;;;;;-2.45;100.00;99858.88;5030319;28;20049;-81
2021/12/22 11:44:46;;;;;;;31.83;14.30;;;;;;;-2.54;100.00;99831.81;5034141;28;20144;-81
2021/12/22 11:47:16;;;;;;;30.10;14.87;;;;;;;-2.44;100.00;99840.16;5032960;28;20057;-80
2021/12/22 11:49:51;;;;;;;28.23;15.50;;;;;;;-2.41;100.00;99832.00;5046470;28;20140;-81
2021/12/22 11:52:32;;;;;;;25.07;12.50;;;;;;;-2.29;100.00;99840.25;5036193;28;20072;-81
2021/12/22 11:55:10;;;;;;;31.33;14.03;;;;;;;-2.28;100.00;99829.50;5045874;28;20045;-81
2021/12/22 11:57:37;;;;;;;24.77;13.13;;;;;;;-2.22;100.00;99822.97;5029987;28;20465;-81
2021/12/22 12:00:27;;;;;;;25.23;12.77;;;;;;;-2.18;100.00;99820.03;5033089;28;20057;-81
2021/12/22 12:02:58;;;;;;;29.30;13.70;;;;;;;-2.18;100.00;99809.38;5048401;28;20052;-81
2021/12/22 12:05:27;;;;;;;29.37;13.73;;;;;;;-2.06;100.00;99807.81;5053188;28;20128;-81
2021/12/22 12:07:56;;;;;;;30.20;14.30;;;;;;;-2.02;100.00;99806.72;5037345;28;20053;-81
2021/12/22 12:10:41;;;;;;;31.13;14.27;;;;;;;-2.04;100.00;99794.41;5032487;28;20046;-80
2021/12/22 12:13:21;;;;;;;29.67;12.73;;;;;;;-2.01;100.00;99787.09;5031717;28;20049;-80
2021/12/22 12:22:11;;;;;;;27.13;13.00;;;;;;;-1.94;100.00;99787.59;5021303;28;20100;-81
2021/12/22 12:24:47;;;;;;;26.53;13.67;;;;;;;-1.96;100.00;99781.50;5032315;28;20507;-81
2021/12/22 12:27:54;;;;;;;24.87;13.13;;;;;;;-1.83;100.00;99781.63;5023173;28;20085;-81
2021/12/22 12:30:27;;;;;;;31.27;15.10;;;;;;;-1.90;100.00;99773.13;5032660;28;20060;-81
2021/12/22 12:33:09;;;;;;;30.63;14.17;;;;;;;-1.79;100.00;99773.38;5032461;28;20060;-81
2021/12/22 12:35:40;;;;;;;28.20;14.17;;;;;;;-1.79;100.00;99764.53;5032619;28;20045;-81
2021/12/22 12:38:12;;;;;;;25.43;13.43;;;;;;;-1.76;100.00;99769.66;5032704;28;20053;-81
2021/12/22 12:41:17;;;;;;;27.33;12.93;;;;;;;-1.75;100.00;99758.03;5033028;28;20061;-81
2021/12/22 12:44:27;;;;;;;27.77;13.53;;;;;;;-1.69;100.00;99765.66;5049557;28;20053;-80
2021/12/22 12:46:54;;;;;;;;;;;;;;;-1.62;100.00;99769.69;5027739;28;20057;-80
2021/12/22 12:49:44;;;;;;;25.47;13.57;;;;;;;-1.66;100.00;99760.13;5032550;28;19928;-80
2021/12/22 12:52:29;;;;;;;29.50;13.47;;;;;;;-1.63;100.00;99764.44;5028434;28;20764;-81
2021/12/22 12:55:18;;;;;;;19.40;10.97;;;;;;;-1.56;100.00;99768.47;5021489;28;20057;-81
2021/12/22 12:57:46;;;;;;;26.00;13.13;;;;;;;-1.64;100.00;99752.06;5028502;28;20041;-81
2021/12/22 13:00:24;;;;;;;22.83;12.20;;;;;;;-1.58;100.00;99758.81;5052309;28;20061;-81
2021/12/22 13:03:12;;;;;;;28.90;13.20;;;;;;;-1.43;100.00;99772.09;5044387;28;20083;-81
2021/12/22 13:05:46;;;;;;;28.03;13.27;;;;;;;-1.38;100.00;99761.16;5034706;28;20053;-81
2021/12/22 13:08:13;;;;;;;24.03;12.93;;;;;;;-1.38;100.00;99761.16;5025347;28;20122;-81
2021/12/22 13:10:50;;;;;;;27.47;14.83;;;;;;;-1.34;100.00;99746.69;5031774;28;20045;-81
2021/12/22 13:13:19;;;;;;;26.07;13.30;;;;;;;-1.33;100.00;99744.84;5042753;28;20504;-81
2021/12/22 13:15:46;;;;;;;28.63;14.23;;;;;;;-1.20;100.00;99752.97;5051867;28;20060;-83
2021/12/22 13:18:28;;;;;;;24.80;12.63;;;;;;;-1.19;99.38;99758.22;5042741;28;20547;-81
2021/12/22 13:21:00;;;;;;;25.90;13.20;;;;;;;-1.31;98.59;99743.81;5031879;28;20151;-81
2021/12/22 13:23:31;;;;;;;28.83;13.30;;;;;;;-1.29;99.63;99743.72;5034512;28;20044;-81
2021/12/22 13:25:59;;;;;;;31.23;13.60;;;;;;;-1.13;99.53;99751.59;5052132;28;20053;-81
2021/12/22 13:28:35;;;;;;;23.40;12.97;;;;;;;-1.04;100.00;99767.03;5031478;28;20141;-80
2021/12/22 13:31:07;;;;;;;25.03;12.53;;;;;;;-1.04;99.28;99756.38;5012338;28;20107;-80
2021/12/22 13:33:36;;;;;;;22.67;12.17;;;;;;;-1.00;98.58;99754.38;5023695;28;20069;-81
2021/12/22 13:36:08;;;;;;;27.07;13.27;;;;;;;-0.92;100.00;99760.06;5034920;28;20052;-80
2021/12/22 13:38:38;;;;;;;23.77;12.47;;;;;;;-0.87;98.31;99755.31;5035759;28;20072;-80
2021/12/22 13:41:07;;;;;;;23.70;13.00;;;;;;;-0.93;98.24;99742.38;5035327;28;20475;-80
2021/12/22 13:43:37;;;;;;;25.48;12.90;;;;;;;-0.90;97.62;99750.19;5044736;28;20052;-81
2021/12/22 13:46:19;;;;;;;31.47;12.47;;;;;;;-0.99;97.94;99735.59;5055691;28;20053;-80
2021/12/22 13:48:50;;;;;;;29.30;13.77;;;;;;;-0.95;98.73;99744.25;5041120;28;20053;-80
2021/12/22 13:51:21;;;;;;;38.47;14.40;;;;;;;-0.87;99.20;99739.31;5016408;28;20046;-80
2021/12/22 13:53:49;;;;;;;28.13;13.77;;;;;;;-0.96;98.42;99726.53;5027230;28;20049;-80
2021/12/22 13:56:20;;;;;;;29.73;14.43;;;;;;;-1.00;99.15;99733.88;5035859;28;20511;-80
2021/12/22 13:58:50;;;;;;;25.50;13.23;;;;;;;-1.14;99.51;99716.06;5036768;28;20087;-80
2021/12/22 14:01:29;;;;;;;;;;;;;;;-0.96;99.60;99731.88;5036509;28;20452;-80
2021/12/22 14:04:09;;;;;;;27.30;12.25;;;;;;;-1.14;99.63;99720.56;5037682;28;19920;-80
2021/12/22 14:06:40;;;;;;;25.95;13.90;;;;;;;-1.16;99.08;99719.78;5056965;28;20048;-80
2021/12/22 14:09:10;;;;;;;29.40;13.97;;;;;;;-1.10;99.87;99730.06;5043809;28;20073;-80
2021/12/22 14:11:41;;;;;;;34.90;13.80;;;;;;;-1.16;100.00;99717.13;5035494;28;20051;-80
2021/12/22 14:14:31;;;;;;;24.57;12.77;;;;;;;-1.30;100.00;99715.31;5043032;28;20057;-80
2021/12/22 14:17:10;;;;;;;27.83;14.03;;;;;;;-1.28;99.60;99710.72;5051114;28;20056;-80
2021/12/22 14:19:40;;;;;;;32.47;13.93;;;;;;;-1.13;99.28;99735.59;5039449;28;20429;-80
2021/12/22 14:22:10;;;;;;;31.38;14.07;;;;;;;-1.18;100.00;99730.56;5015694;28;20058;-80
2021/12/22 14:24:40;;;;;;;26.43;14.47;;;;;;;-1.29;100.00;99715.22;5030577;28;20045;-80
2021/12/22 14:27:17;;;;;;;27.35;14.02;;;;;;;-1.26;100.00;99724.84;5036281;28;20137;-80
2021/12/22 14:29:50;;;;;;;21.40;12.65;;;;;;;-1.39;100.00;99703.41;5034211;28;20049;-81
2021/12/22 14:32:28;;;;;;;28.45;13.48;;;;;;;-1.43;100.00;99705.41;5036856;28;20412;-80
2021/12/22 14:35:01;;;;;;;25.40;12.60;;;;;;;-1.37;100.00;99735.31;5035343;28;20053;-80
2021/12/22 14:37:33;;;;;;;26.03;13.77;;;;;;;-1.40;100.00;99730.19;5035089;28;20081;-80
2021/12/22 14:40:00;;;;;;;26.73;13.37;;;;;;;-1.38;100.00;99726.47;5049621;28;20045;-80
2021/12/22 14:42:29;;;;;;;30.20;15.10;;;;;;;-1.42;100.00;99716.94;5053987;28;20041;-80
2021/12/22 14:45:23;;;;;;;28.63;14.63;;;;;;;-1.47;100.00;99716.38;5042214;28;20045;-80
2021/12/22 14:48:08;;;;;;;30.07;15.40;;;;;;;-1.63;100.00;99706.63;5032260;28;20060;-80
2021/12/22 14:50:36;;;;;;;29.83;14.30;;;;;;;-1.58;100.00;99718.84;5053633;28;20106;-80
2021/12/22 14:53:07;;;;;;;31.63;14.23;;;;;;;-1.57;100.00;99721.41;5054859;28;20499;-80
2021/12/22 14:55:40;;;;;;;29.70;13.87;;;;;;;-1.66;100.00;99711.31;5038748;28;20061;-80
2021/12/22 14:58:07;;;;;;;30.60;14.37;;;;;;;-1.79;100.00;99703.22;5035017;28;20440;-80
2021/12/22 15:00:49;;;;;;;25.40;14.47;;;;;;;-1.71;100.00;99718.75;5033837;28;20052;-80
2021/12/22 15:03:16;;;;;;;26.03;14.13;;;;;;;-1.82;100.00;99714.91;5032320;28;20635;-80
2021/12/22 15:05:50;;;;;;;22.43;12.70;;;;;;;-1.86;100.00;99724.03;5052809;28;20068;-80
2021/12/22 15:08:19;;;;;;;25.07;13.40;;;;;;;-1.92;100.00;99711.06;5038774;28;20045;-80
2021/12/22 15:10:46;;;;;;;27.00;14.47;;;;;;;-2.05;100.00;99694.94;5033632;28;20069;-80
2021/12/22 15:13:13;;;;;;;29.50;14.07;;;;;;;-2.08;100.00;99694.28;5033541;28;20046;-80
2021/12/22 15:15:40;;;;;;;30.37;14.33;;;;;;;-2.07;100.00;99699.53;5037383;28;20412;-81
2021/12/22 15:18:07;;;;;;;28.70;15.33;;;;;;;-2.22;100.00;99682.66;5034361;28;20049;-81
2021/12/22 15:20:34;;;;;;;29.90;13.90;;;;;;;-2.34;100.00;99675.38;5034199;28;20050;-80
2021/12/22 15:23:04;;;;;;;24.50;12.93;;;;;;;-2.37;100.00;99697.72;5034327;28;20053;-81
2021/12/22 15:25:32;;;;;;;30.73;14.20;;;;;;;-2.61;100.00;99692.00;5040802;28;20046;-81
2021/12/22 15:28:01;;;;;;;27.43;14.07;;;;;;;-2.60;100.00;99684.91;5014398;28;20501;-80
2021/12/22 15:30:29;;;;;;;29.03;13.93;;;;;;;-2.70;100.00;99666.78;5027491;28;20071;-80
2021/12/22 15:32:56;;;;;;;26.83;14.17;;;;;;;-2.73;100.00;99688.25;5034335;28;20048;-80
2021/12/22 15:35:23;;;;;;;28.80;15.10;;;;;;;-2.89;100.00;99680.28;5046275;28;20055;-80
2021/12/22 15:37:50;;;;;;;26.30;12.63;;;;;;;-2.93;100.00;99688.53;5053731;28;20049;-80
2021/12/22 15:40:18;;;;;;;42.50;14.57;;;;;;;-2.86;100.00;99688.09;5041675;28;20503;-81
2021/12/22 15:42:49;;;;;;;26.20;14.13;;;;;;;-2.76;100.00;99692.91;5033055;28;20050;-80
2021/12/22 15:45:16;;;;;;;30.20;14.13;;;;;;;-2.96;100.00;99678.06;5034666;28;20095;-81
2021/12/22 15:47:53;;;;;;;28.47;13.80;;;;;;;-2.87;100.00;99691.69;5033585;28;20045;-80
2021/12/22 15:50:24;;;;;;;23.90;11.90;;;;;;;-2.98;100.00;99710.09;5033896;28;20481;-81
2021/12/22 15:52:53;;;;;;;27.93;14.87;;;;;;;-3.12;100.00;99689.53;5033543;28;20050;-80
2021/12/22 15:55:24;;;;;;;29.08;13.23;;;;;;;-3.25;100.00;99694.69;5037431;28;20052;-81
2021/12/22 15:57:55;;;;;;;32.67;15.00;;;;;;;-3.12;100.00;99702.84;5033395;28;20076;-80
2021/12/22 16:00:25;;;;;;;27.60;14.77;;;;;;;-3.21;100.00;99700.69;5043127;28;20048;-81
2021/12/22 16:03:07;;;;;;;23.47;13.53;;;;;;;-3.26;100.00;99700.94;5036849;28;20056;-81
2021/12/22 16:05:44;;;;;;;41.03;17.83;;;;;;;-3.34;100.00;99700.53;5033069;28;20053;-81
2021/12/22 16:08:15;;;;;;;30.80;13.40;;;;;;;-3.41;100.00;99701.78;5033429;28;20117;-82
2021/12/22 16:10:51;;;;;;;27.07;13.17;;;;;;;-3.38;100.00;99707.78;5032645;28;20041;-81
2021/12/22 16:13:34;;;;;;;25.53;13.73;;;;;;;-3.43;100.00;99711.66;5033644;28;20107;-82
2021/12/22 16:16:06;;;;;;;29.80;14.13;;;;;;;-3.57;100.00;99686.69;5033423;28;20500;-81
2021/12/22 16:18:35;;;;;;;23.13;12.77;;;;;;;-3.62;100.00;99691.38;5025959;28;20061;-82
2021/12/22 16:21:02;;;;;;;27.10;13.55;;;;;;;-3.56;100.00;99696.34;5046443;28;20050;-83
2021/12/22 16:23:30;;;;;;;24.90;11.90;;;;;;;-3.58;100.00;99702.72;5052555;28;20056;-81
2021/12/22 16:26:00;;;;;;;30.23;14.00;;;;;;;-3.65;100.00;99696.00;5045499;28;20081;-80
2021/12/22 16:28:28;;;;;;;27.83;13.47;;;;;;;-3.50;100.00;99705.81;5033248;28;20392;-80
2021/12/22 16:31:04;;;;;;;25.93;13.50;;;;;;;-3.61;100.00;99694.91;5031934;28;20145;-80
2021/12/22 16:33:36;;;;;;;29.17;14.13;;;;;;;-3.48;100.00;99706.56;5033379;28;20049;-80
2021/12/22 16:36:05;;;;;;;32.50;15.10;;;;;;;-3.46;100.00;99701.16;5033136;28;20049;-80
2021/12/22 16:38:35;;;;;;;29.90;12.98;;;;;;;-3.53;100.00;99697.16;5033134;28;20061;-80
2021/12/22 16:41:02;;;;;;;27.67;13.35;;;;;;;-3.45;100.00;99701.09;5043384;28;20047;-80
2021/12/22 16:43:31;;;;;;;29.23;14.80;;;;;;;-3.44;100.00;99707.28;5052251;28;20497;-79
2021/12/22 16:45:58;;;;;;;26.25;14.73;;;;;;;-3.56;100.00;99699.00;5043058;28;20504;-80
2021/12/22 16:48:27;;;;;;;29.70;14.90;;;;;;;-3.61;100.00;99689.59;5032489;28;20103;-80
2021/12/22 16:50:56;;;;;;;34.55;14.90;;;;;;;-3.52;100.00;99691.75;5032207;28;20041;-79
2021/12/22 16:53:29;;;;;;;29.07;14.10;;;;;;;-3.58;100.00;99690.28;5033000;28;20045;-80
2021/12/22 16:55:59;;;;;;;39.40;13.40;;;;;;;-3.52;100.00;99701.50;5041104;28;20515;-80
2021/12/22 16:58:28;;;;;;;28.57;13.50;;;;;;;-3.71;100.00;99683.03;5052943;28;20056;-79
2021/12/22 17:00:56;;;;;;;38.05;17.27;;;;;;;-3.70;100.00;99693.59;5046104;28;20245;-80
2021/12/22 17:03:25;;;;;;;38.67;16.67;;;;;;;-3.74;100.00;99702.66;5052800;28;20128;-79
2021/12/22 17:05:53;;;;;;;29.00;14.73;;;;;;;-3.91;100.00;99682.28;5052726;28;20045;-79
2021/12/22 17:08:28;;;;;;;31.00;15.20;;;;;;;-3.89;100.00;99679.56;5050623;28;20420;-80
2021/12/22 17:10:55;;;;;;;32.20;15.43;;;;;;;-4.04;100.00;99663.47;5051454;28;20554;-80
2021/12/22 17:13:24;;;;;;;45.83;20.57;;;;;;;-4.07;100.00;99679.56;5036588;28;20049;-80
2021/12/22 17:15:51;;;;;;;33.95;16.23;;;;;;;-3.98;100.00;99687.06;5036109;28;20056;-79
2021/12/22 17:18:19;;;;;;;33.40;14.70;;;;;;;-4.13;100.00;99666.59;5035707;28;20570;-79
2021/12/22 17:20:46;;;;;;;31.67;14.70;;;;;;;-4.07;100.00;99678.72;5036190;28;20416;-79
2021/12/22 17:23:14;;;;;;;31.87;15.37;;;;;;;-4.05;100.00;99683.03;5036065;28;20053;-79
2021/12/22 17:25:44;;;;;;;36.60;16.50;;;;;;;-4.14;100.00;99668.41;5036335;28;20112;-79
2021/12/22 17:28:13;;;;;;;28.70;13.77;;;;;;;-4.03;100.00;99677.63;5036399;28;20045;-79
2021/12/22 17:30:41;;;;;;;35.30;16.23;;;;;;;-4.10;100.00;99663.78;5036349;28;20049;-80
2021/12/22 17:33:08;;;;;;;36.60;16.57;;;;;;;-4.11;100.00;99668.25;5036433;28;20049;-80
2021/12/22 17:35:36;;;;;;;31.10;15.60;;;;;;;-4.05;100.00;99690.09;5035902;28;20477;-79
2021/12/22 17:38:03;;;;;;;38.17;15.27;;;;;;;-4.04;100.00;99683.88;5036518;28;20481;-79
2021/12/22 17:40:30;;;;;;;35.50;14.63;;;;;;;-4.21;100.00;99668.81;5034757;28;20504;-80
2021/12/22 17:42:57;;;;;;;33.80;14.87;;;;;;;-4.10;100.00;99666.44;5036297;28;20057;-80
2021/12/22 17:45:24;;;;;;;36.83;16.67;;;;;;;-3.92;100.00;99691.19;5050718;28;20052;-80
2021/12/22 17:47:55;;;;;;;30.97;15.47;;;;;;;-3.94;100.00;99669.19;5041116;28;20046;-79
2021/12/22 17:50:24;;;;;;;35.50;14.93;;;;;;;-4.07;100.00;99660.97;5049115;28;20048;-80
2021/12/22 17:52:52;;;;;;;29.73;14.10;;;;;;;-3.97;100.00;99674.66;5055507;28;20053;-79
2021/12/22 17:55:19;;;;;;;41.53;17.00;;;;;;;-4.04;100.00;99666.13;5055560;28;20048;-80
2021/12/22 17:57:46;;;;;;;60.87;20.63;;;;;;;-4.20;100.00;99663.44;5056157;28;20051;-79
2021/12/22 18:00:14;;;;;;;50.10;18.13;;;;;;;-4.13;100.00;99667.47;5044025;28;20042;-80
2021/12/22 18:02:43;;;;;;;37.23;15.83;;;;;;;-4.20;100.00;99666.09;5034804;28;20049;-80
2021/12/22 18:05:12;;;;;;;37.63;16.20;;;;;;;-4.10;100.00;99669.94;5035532;28;20058;-80
2021/12/22 18:07:43;;;;;;;35.20;15.23;;;;;;;-4.11;100.00;99654.97;5035251;28;20045;-80
2021/12/22 18:10:15;;;;;;;29.03;14.47;;;;;;;-3.97;100.00;99662.22;5035609;28;20041;-80
2021/12/22 18:12:42;;;;;;;36.13;14.47;;;;;;;-4.02;100.00;99645.69;5034597;28;20042;-80
2021/12/22 18:15:11;;;;;;;33.57;15.43;;;;;;;-3.98;100.00;99644.56;5044555;28;20052;-80
2021/12/22 18:17:38;;;;;;;32.30;14.13;;;;;;;-4.04;100.00;99667.94;5040991;28;20556;-80
